createdAt,value
2022-12-03T00:00:12.868Z,2.95
2022-12-03T00:04:16.127Z,2.94
2022-12-03T00:08:18.880Z,2.92
2022-12-03T00:12:22.915Z,2.93
2022-12-03T00:16:25.755Z,2.93
2022-12-03T00:20:28.484Z,2.93
2022-12-03T00:24:31.183Z,2.92
2022-12-03T00:28:35.255Z,2.92
2022-12-03T00:32:37.962Z,2.94
2022-12-03T00:36:40.772Z,2.93
2022-12-03T00:40:43.566Z,2.88
2022-12-03T00:44:47.700Z,2.87
2022-12-03T00:48:50.447Z,2.89
2022-12-03T00:52:53.151Z,2.85
2022-12-03T00:56:56.014Z,2.85
2022-12-03T01:01:00.145Z,2.88
2022-12-03T01:05:03.344Z,2.87
2022-12-03T01:09:06.395Z,2.82
2022-12-03T01:13:09.151Z,2.85
2022-12-03T01:17:13.503Z,2.88
2022-12-03T01:21:16.229Z,2.91
2022-12-03T01:25:18.956Z,2.83
2022-12-03T01:29:21.688Z,2.80
2022-12-03T01:33:25.761Z,2.77
2022-12-03T01:37:28.509Z,2.81
2022-12-03T01:41:33.016Z,2.79
2022-12-03T01:45:35.731Z,2.82
2022-12-03T01:49:44.029Z,2.79
2022-12-03T01:53:47.642Z,2.77
2022-12-03T01:57:52.412Z,2.79
2022-12-03T02:01:55.172Z,2.78
2022-12-03T02:05:59.306Z,2.71
2022-12-03T02:10:05.312Z,2.73
2022-12-03T02:14:11.411Z,2.71
2022-12-03T02:18:14.204Z,2.68
2022-12-03T02:22:29.220Z,2.71
2022-12-03T02:26:33.509Z,2.64
2022-12-03T02:30:37.479Z,2.62
2022-12-03T02:34:42.646Z,2.69
2022-12-03T02:38:46.692Z,2.73
2022-12-03T02:42:53.613Z,2.64
2022-12-03T02:46:56.380Z,2.67
2022-12-03T02:51:02.127Z,2.70
2022-12-03T02:55:07.944Z,2.61
2022-12-03T02:59:12.307Z,2.57
2022-12-03T03:03:15.389Z,2.56
2022-12-03T03:07:18.218Z,2.59
2022-12-03T03:11:22.099Z,2.58
2022-12-03T03:15:26.365Z,2.58
2022-12-03T03:19:30.631Z,2.61
2022-12-03T03:23:33.441Z,2.62
2022-12-03T03:27:36.741Z,2.56
2022-12-03T03:31:42.539Z,2.51
2022-12-03T03:35:46.520Z,2.55
2022-12-03T03:39:49.394Z,2.57
2022-12-03T03:43:52.233Z,2.47
2022-12-03T03:47:57.714Z,2.50
2022-12-03T03:52:00.562Z,2.57
2022-12-03T03:56:03.376Z,2.62
2022-12-03T04:00:08.277Z,2.67
2022-12-03T04:04:20.471Z,2.71
2022-12-03T04:08:23.219Z,2.67
2022-12-03T04:12:43.572Z,2.65
2022-12-03T04:16:46.318Z,2.66
2022-12-03T04:20:50.473Z,2.62
2022-12-03T04:25:13.161Z,2.63
2022-12-03T04:29:14.902Z,2.62
2022-12-03T04:33:35.438Z,2.65
2022-12-03T04:37:39.527Z,2.63
2022-12-03T04:41:42.249Z,2.66
2022-12-03T04:45:45.069Z,2.66
2022-12-03T04:49:49.928Z,2.60
2022-12-03T04:53:53.985Z,2.54
2022-12-03T04:57:56.761Z,2.56
2022-12-03T05:01:59.841Z,2.56
2022-12-03T05:06:02.593Z,2.50
2022-12-03T05:10:08.820Z,2.42
2022-12-03T05:14:12.131Z,2.47
2022-12-03T05:18:14.843Z,2.43
2022-12-03T05:22:17.563Z,2.40
2022-12-03T05:26:22.334Z,2.44
2022-12-03T05:30:25.136Z,2.47
2022-12-03T05:34:27.881Z,2.41
2022-12-03T05:38:30.614Z,2.36
2022-12-03T05:42:52.343Z,2.35
2022-12-03T05:46:55.147Z,2.34
2022-12-03T05:50:57.867Z,2.36
2022-12-03T05:55:00.607Z,2.31
2022-12-03T05:59:06.137Z,2.36
2022-12-03T06:03:09.220Z,2.34
2022-12-03T06:07:14.188Z,2.25
2022-12-03T06:11:17.158Z,2.16
2022-12-03T06:15:21.835Z,2.14
2022-12-03T06:19:24.525Z,2.08
2022-12-03T06:23:27.323Z,2.10
2022-12-03T06:27:30.117Z,2.12
2022-12-03T06:31:34.329Z,2.01
2022-12-03T06:35:37.819Z,2.06
2022-12-03T06:39:40.558Z,2.13
2022-12-03T06:43:43.234Z,2.12
2022-12-03T06:47:47.277Z,2.13
2022-12-03T06:51:49.982Z,2.12
2022-12-03T06:55:52.645Z,2.05
2022-12-03T06:59:55.603Z,1.97
2022-12-03T07:03:59.897Z,2.01
2022-12-03T07:08:02.724Z,1.97
2022-12-03T07:12:06.133Z,1.99
2022-12-03T07:16:09.577Z,1.99
2022-12-03T07:20:14.628Z,1.99
2022-12-03T07:24:17.454Z,2.01
2022-12-03T07:28:20.174Z,2.01
2022-12-03T07:32:23.054Z,2.01
2022-12-03T07:36:27.168Z,2.01
2022-12-03T07:40:30.051Z,2.00
2022-12-03T07:44:33.004Z,2.01
2022-12-03T07:48:35.780Z,1.96
2022-12-03T07:52:39.835Z,1.97
2022-12-03T07:56:42.550Z,1.91
2022-12-03T08:00:45.328Z,1.86
2022-12-03T08:04:48.076Z,1.90
2022-12-03T08:09:07.407Z,1.91
2022-12-03T08:13:14.545Z,1.86
2022-12-03T08:17:19.732Z,1.84
2022-12-03T08:21:23.099Z,1.85
2022-12-03T08:25:31.910Z,1.93
2022-12-03T08:29:34.648Z,1.90
2022-12-03T08:33:38.174Z,1.96
2022-12-03T08:37:41.007Z,1.90
2022-12-03T08:42:03.156Z,1.89
2022-12-03T08:46:06.272Z,1.88
2022-12-03T08:50:27.338Z,1.82
2022-12-03T08:54:30.195Z,1.88
2022-12-03T08:58:39.493Z,1.84
2022-12-03T09:02:46.247Z,1.83
2022-12-03T09:06:49.133Z,1.86
2022-12-03T09:10:51.858Z,1.88
2022-12-03T09:14:56.436Z,1.82
2022-12-03T09:18:59.275Z,1.78
2022-12-03T09:23:02.038Z,1.79
2022-12-03T09:27:04.932Z,1.76
2022-12-03T09:31:09.487Z,1.81
2022-12-03T09:35:12.653Z,1.83
2022-12-03T09:39:15.372Z,1.80
2022-12-03T09:43:19.114Z,1.85
2022-12-03T09:47:25.099Z,1.83
2022-12-03T09:51:32.521Z,1.86
2022-12-03T09:55:35.270Z,1.85
2022-12-03T09:59:39.128Z,1.81
2022-12-03T10:03:46.960Z,1.87
2022-12-03T10:07:50.316Z,1.97
2022-12-03T10:11:53.147Z,1.92
2022-12-03T10:15:58.186Z,1.90
2022-12-03T10:20:02.754Z,1.91
2022-12-03T10:24:23.430Z,1.93
2022-12-03T10:28:32.936Z,1.83
2022-12-03T10:32:42.169Z,1.86
2022-12-03T10:36:46.256Z,1.87
2022-12-03T10:40:49.484Z,1.81
2022-12-03T10:45:09.057Z,1.87
2022-12-03T10:49:16.069Z,1.90
2022-12-03T10:53:21.867Z,1.88
2022-12-03T10:57:25.681Z,1.85
2022-12-03T11:01:28.502Z,1.84
2022-12-03T11:05:31.306Z,1.91
2022-12-03T11:09:35.392Z,1.97
2022-12-03T11:13:53.228Z,1.97
2022-12-03T11:17:55.979Z,2.06
2022-12-03T11:22:44.846Z,1.93
2022-12-03T11:27:22.923Z,1.86
2022-12-03T11:31:38.490Z,1.95
2022-12-03T11:36:12.760Z,2.00
2022-12-03T11:40:39.111Z,1.99
2022-12-03T11:44:43.765Z,2.03
2022-12-03T11:48:47.371Z,2.01
2022-12-03T11:52:55.332Z,1.89
2022-12-03T11:56:58.155Z,1.81
2022-12-03T12:01:03.922Z,1.77
2022-12-03T12:05:17.648Z,1.73
2022-12-03T12:09:51.264Z,1.75
2022-12-03T12:13:56.947Z,1.67
2022-12-03T12:18:36.038Z,1.66
2022-12-03T12:22:39.266Z,1.69
2022-12-03T12:26:51.357Z,1.68
2022-12-03T12:30:54.156Z,1.69
2022-12-03T12:35:03.055Z,1.70
2022-12-03T12:39:09.092Z,1.64
2022-12-03T12:43:24.123Z,1.66
2022-12-03T12:47:29.822Z,1.71
2022-12-03T12:51:34.010Z,1.64
2022-12-03T12:55:37.866Z,1.70
2022-12-03T12:59:40.771Z,1.67
2022-12-03T13:03:43.599Z,1.68
2022-12-03T13:07:47.775Z,1.62
2022-12-03T13:11:54.614Z,1.60
2022-12-03T13:16:03.641Z,1.60
2022-12-03T13:20:18.998Z,1.67
2022-12-03T13:24:32.735Z,1.75
2022-12-03T13:28:36.113Z,1.85
2022-12-03T13:32:39.827Z,1.79
2022-12-03T13:36:43.837Z,1.81
2022-12-03T13:40:55.823Z,1.84
2022-12-03T13:45:02.576Z,1.75
2022-12-03T13:49:14.688Z,1.72
2022-12-03T13:53:22.740Z,1.72
2022-12-03T13:57:26.941Z,1.72
2022-12-03T14:01:29.910Z,1.70
2022-12-03T14:05:32.707Z,1.68
2022-12-03T14:09:35.413Z,1.67
2022-12-03T14:13:39.500Z,1.64
2022-12-03T14:17:42.278Z,1.67
2022-12-03T14:21:45.006Z,1.71
2022-12-03T14:25:47.759Z,1.70
2022-12-03T14:29:52.459Z,1.76
2022-12-03T14:33:55.588Z,1.71
2022-12-03T14:37:58.305Z,1.76
2022-12-03T14:42:16.696Z,1.72
2022-12-03T14:46:21.019Z,1.54
2022-12-03T14:50:23.756Z,1.44
2022-12-03T14:54:26.642Z,1.46
2022-12-03T14:58:29.329Z,1.42
2022-12-03T15:02:33.553Z,1.39
2022-12-03T15:06:36.337Z,1.36
2022-12-03T15:10:38.999Z,1.30
2022-12-03T15:14:42.403Z,1.25
2022-12-03T15:18:47.508Z,1.23
2022-12-03T15:22:50.233Z,1.21
2022-12-03T15:26:53.464Z,1.21
2022-12-03T15:30:57.500Z,1.25
2022-12-03T15:35:08.185Z,1.28
2022-12-03T15:39:10.861Z,1.24
2022-12-03T15:43:13.575Z,1.20
2022-12-03T15:47:16.365Z,1.26
2022-12-03T15:51:20.689Z,1.25
2022-12-03T15:55:23.423Z,1.16
2022-12-03T15:59:26.165Z,1.15
2022-12-03T16:03:28.946Z,1.17
2022-12-03T16:07:33.195Z,1.24
2022-12-03T16:11:36.058Z,1.25
2022-12-03T16:15:38.853Z,1.25
2022-12-03T16:19:41.628Z,1.22
2022-12-03T16:23:45.674Z,1.18
2022-12-03T16:27:49.417Z,1.15
2022-12-03T16:31:52.190Z,1.17
2022-12-03T16:35:54.917Z,1.14
2022-12-03T16:39:59.027Z,1.11
2022-12-03T16:44:03.398Z,1.09
2022-12-03T16:48:07.435Z,1.12
2022-12-03T16:52:10.117Z,1.06
2022-12-03T16:56:14.734Z,1.06
2022-12-03T17:00:18.510Z,1.09
2022-12-03T17:04:21.238Z,1.12
2022-12-03T17:08:24.344Z,1.13
2022-12-03T17:12:42.278Z,1.14
2022-12-03T17:16:51.162Z,1.13
2022-12-03T17:20:53.902Z,1.09
2022-12-03T17:24:56.616Z,1.09
2022-12-03T17:29:00.806Z,1.16
2022-12-03T17:33:03.541Z,1.10
2022-12-03T17:37:06.323Z,1.15
2022-12-03T17:41:09.158Z,1.16
2022-12-03T17:45:14.039Z,1.15
2022-12-03T17:49:16.900Z,1.14
2022-12-03T17:53:19.659Z,1.14
2022-12-03T17:57:22.380Z,1.11
2022-12-03T18:01:26.658Z,1.16
2022-12-03T18:05:29.411Z,1.19
2022-12-03T18:09:32.120Z,1.17
2022-12-03T18:13:34.903Z,1.20
2022-12-03T18:17:38.957Z,1.23
2022-12-03T18:21:41.803Z,1.18
2022-12-03T18:25:44.967Z,1.23
2022-12-03T18:29:47.694Z,1.21
2022-12-03T18:33:51.734Z,1.15
2022-12-03T18:37:54.561Z,1.12
2022-12-03T18:41:57.365Z,1.12
2022-12-03T18:46:00.103Z,1.07
2022-12-03T18:50:04.348Z,1.11
2022-12-03T18:54:12.324Z,1.11
2022-12-03T18:58:15.150Z,1.07
2022-12-03T19:02:38.944Z,1.08
2022-12-03T19:06:43.580Z,1.14
2022-12-03T19:10:47.083Z,1.13
2022-12-03T19:14:50.983Z,1.16
2022-12-03T19:18:54.891Z,1.19
2022-12-03T19:22:58.961Z,1.20
2022-12-03T19:27:01.784Z,1.15
2022-12-03T19:31:06.425Z,1.14
2022-12-03T19:35:11.145Z,1.14
2022-12-03T19:39:15.411Z,1.16
2022-12-03T19:43:18.262Z,1.11
2022-12-03T19:47:21.016Z,1.09
2022-12-03T19:51:34.665Z,1.12
2022-12-03T19:55:39.319Z,1.11
2022-12-03T19:59:42.723Z,1.14
2022-12-03T20:03:47.885Z,1.12
2022-12-03T20:07:50.727Z,1.06
2022-12-03T20:11:55.675Z,1.06
2022-12-03T20:15:58.649Z,1.08
2022-12-03T20:20:01.470Z,1.14
2022-12-03T20:24:05.219Z,1.13
2022-12-03T20:28:09.281Z,1.10
2022-12-03T20:32:12.100Z,1.07
2022-12-03T20:36:16.601Z,1.13
2022-12-03T20:40:19.352Z,1.20
2022-12-03T20:44:23.404Z,1.19
2022-12-03T20:48:26.075Z,1.20
2022-12-03T20:52:28.968Z,1.24
2022-12-03T20:56:34.003Z,1.19
2022-12-03T21:00:38.101Z,1.21
2022-12-03T21:04:41.416Z,1.18
2022-12-03T21:08:44.676Z,1.18
2022-12-03T21:12:47.488Z,1.19
2022-12-03T21:17:07.834Z,1.20
2022-12-03T21:21:12.873Z,1.19
2022-12-03T21:25:15.644Z,1.11
2022-12-03T21:29:18.467Z,1.15
2022-12-03T21:33:22.603Z,1.22
2022-12-03T21:37:25.342Z,1.24
2022-12-03T21:41:28.101Z,1.16
2022-12-03T21:45:30.789Z,1.15
2022-12-03T21:49:35.933Z,1.18
2022-12-03T21:53:43.462Z,1.22
2022-12-03T21:57:46.564Z,1.23
2022-12-03T22:01:49.378Z,1.22
2022-12-03T22:05:53.521Z,1.24
2022-12-03T22:09:56.378Z,1.24
2022-12-03T22:13:59.296Z,1.23
2022-12-03T22:18:01.991Z,1.20
2022-12-03T22:22:06.055Z,1.24
2022-12-03T22:26:12.875Z,1.27
2022-12-03T22:30:15.957Z,1.28
2022-12-03T22:34:18.815Z,1.34
2022-12-03T22:38:23.390Z,1.32
2022-12-03T22:42:26.202Z,1.25
2022-12-03T22:46:29.023Z,1.24
2022-12-03T22:50:31.840Z,1.28
2022-12-03T22:54:35.985Z,1.28
2022-12-03T22:58:39.615Z,1.21
2022-12-03T23:02:42.361Z,1.26
2022-12-03T23:06:45.141Z,1.29
2022-12-03T23:10:50.955Z,1.32
2022-12-03T23:14:55.076Z,1.32
2022-12-03T23:18:59.384Z,1.29
2022-12-03T23:23:02.108Z,1.29
2022-12-03T23:27:06.182Z,1.24
2022-12-03T23:31:17.019Z,1.25
2022-12-03T23:35:20.057Z,1.24
2022-12-03T23:39:22.748Z,1.22
2022-12-03T23:43:26.758Z,1.26
2022-12-03T23:47:29.574Z,1.18
2022-12-03T23:51:32.271Z,1.14
2022-12-03T23:55:35.062Z,1.22
2022-12-03T23:59:42.020Z,1.22
